createdAt,value
2023-03-15T00:00:43.490Z,22.42
2023-03-15T00:01:43.508Z,22.42
2023-03-15T00:02:43.543Z,22.42
2023-03-15T00:03:43.532Z,22.41
2023-03-15T00:04:43.488Z,22.42
2023-03-15T00:05:43.496Z,22.41
2023-03-15T00:06:43.480Z,22.41
2023-03-15T00:08:43.471Z,22.41
2023-03-15T00:56:43.441Z,22.37
2023-03-15T00:57:43.422Z,22.37
2023-03-15T00:58:43.429Z,22.37
2023-03-15T00:59:43.447Z,22.38
2023-03-15T01:00:43.438Z,22.39
2023-03-15T01:01:43.457Z,22.38
2023-03-15T01:02:43.469Z,22.38
2023-03-15T01:03:43.417Z,22.37
2023-03-15T01:04:43.420Z,22.37
2023-03-15T01:05:43.430Z,22.37
2023-03-15T01:06:43.436Z,22.36
2023-03-15T01:07:43.425Z,22.37
2023-03-15T01:08:43.428Z,22.38
2023-03-15T01:09:43.436Z,22.37
2023-03-15T01:10:43.435Z,22.37
2023-03-15T01:11:43.421Z,22.37
2023-03-15T01:12:43.426Z,22.37
2023-03-15T01:13:43.417Z,22.36
2023-03-15T01:14:43.449Z,22.37
2023-03-15T01:15:43.441Z,22.37
2023-03-15T01:16:43.428Z,22.37
2023-03-15T01:17:43.409Z,22.37
2023-03-15T01:18:43.426Z,22.37
2023-03-15T01:19:43.436Z,22.37
2023-03-15T01:20:43.421Z,22.37
2023-03-15T01:21:43.416Z,22.37
2023-03-15T01:22:43.406Z,22.37
2023-03-15T01:23:43.413Z,22.36
2023-03-15T01:24:43.424Z,22.37
2023-03-15T01:25:43.399Z,22.36
2023-03-15T01:26:43.392Z,22.37
2023-03-15T01:27:43.401Z,22.37
2023-03-15T01:28:43.391Z,22.36
2023-03-15T01:29:43.403Z,22.36
2023-03-15T01:30:43.382Z,22.36
2023-03-15T01:31:43.445Z,22.36
2023-03-15T01:32:43.452Z,22.36
2023-03-15T01:33:43.392Z,22.36
2023-03-15T01:34:43.386Z,22.36
2023-03-15T01:35:43.406Z,22.35
2023-03-15T01:36:43.376Z,22.37
2023-03-15T01:37:43.398Z,22.36
2023-03-15T01:38:43.389Z,22.36
2023-03-15T01:39:43.397Z,22.36
2023-03-15T01:40:43.386Z,22.36
2023-03-15T01:41:43.363Z,22.36
2023-03-15T01:42:43.356Z,22.36
2023-03-15T01:43:43.364Z,22.35
2023-03-15T01:44:43.370Z,22.36
2023-03-15T01:45:43.352Z,22.36
2023-03-15T01:46:43.373Z,22.36
2023-03-15T01:47:43.341Z,22.35
2023-03-15T01:48:43.338Z,22.35
2023-03-15T01:49:43.319Z,22.35
2023-03-15T01:50:43.340Z,22.35
2023-03-15T01:51:43.325Z,22.34
2023-03-15T01:52:43.325Z,22.35
2023-03-15T01:53:43.318Z,22.35
2023-03-15T01:54:43.304Z,22.35
2023-03-15T01:55:43.313Z,22.35
2023-03-15T01:56:43.323Z,22.35
2023-03-15T01:57:43.318Z,22.35
2023-03-15T01:58:43.315Z,22.36
2023-03-15T01:59:43.314Z,22.36
2023-03-15T02:00:43.364Z,22.36
2023-03-15T02:01:43.314Z,22.35
2023-03-15T02:02:43.314Z,22.34
2023-03-15T02:03:43.307Z,22.35
2023-03-15T02:04:43.311Z,22.35
2023-03-15T02:05:43.323Z,22.35
2023-03-15T02:06:43.328Z,22.35
2023-03-15T02:07:43.313Z,22.34
2023-03-15T02:08:43.305Z,22.35
2023-03-15T02:09:43.296Z,22.34
2023-03-15T02:10:43.305Z,22.34
2023-03-15T02:11:43.305Z,22.34
2023-03-15T02:12:43.281Z,22.33
2023-03-15T02:13:43.292Z,22.34
2023-03-15T02:14:43.288Z,22.34
2023-03-15T02:15:43.301Z,22.34
2023-03-15T02:16:43.359Z,22.33
2023-03-15T02:17:43.317Z,22.34
2023-03-15T02:18:43.283Z,22.33
2023-03-15T02:19:43.294Z,22.33
2023-03-15T02:20:43.284Z,22.34
2023-03-15T02:21:43.289Z,22.34
2023-03-15T02:22:43.294Z,22.34
2023-03-15T02:23:43.298Z,22.34
2023-03-15T02:24:43.282Z,22.33
2023-03-15T02:25:43.296Z,22.33
2023-03-15T02:26:43.282Z,22.33
2023-03-15T02:27:43.292Z,22.34
2023-03-15T02:28:43.281Z,22.34
2023-03-15T02:29:43.288Z,22.34
2023-03-15T02:30:43.326Z,22.35
2023-03-15T02:31:43.350Z,22.34
2023-03-15T02:32:43.315Z,22.34
2023-03-15T02:33:43.285Z,22.34
2023-03-15T02:34:43.284Z,22.34
2023-03-15T02:35:43.393Z,22.34
2023-03-15T02:36:43.303Z,22.33
2023-03-15T02:37:43.279Z,22.33
2023-03-15T02:38:43.271Z,22.33
2023-03-15T02:39:43.271Z,22.33
2023-03-15T02:40:43.274Z,22.34
2023-03-15T02:41:43.269Z,22.33
2023-03-15T02:42:43.268Z,22.33
2023-03-15T02:43:43.281Z,22.33
2023-03-15T02:44:43.265Z,22.33
2023-03-15T02:45:43.271Z,22.33
2023-03-15T02:46:43.266Z,22.34
2023-03-15T02:47:43.268Z,22.34
2023-03-15T02:48:43.259Z,22.33
2023-03-15T02:49:43.265Z,22.34
2023-03-15T02:50:43.273Z,22.33
2023-03-15T02:51:43.266Z,22.32
2023-03-15T02:52:43.281Z,22.33
2023-03-15T02:53:43.274Z,22.33
2023-03-15T02:54:43.295Z,22.33
2023-03-15T02:55:43.272Z,22.32
2023-03-15T02:56:43.279Z,22.33
2023-03-15T02:57:43.286Z,22.33
2023-03-15T02:58:43.277Z,22.32
2023-03-15T02:59:43.285Z,22.32
2023-03-15T03:00:43.286Z,22.33
2023-03-15T03:01:43.281Z,22.32
2023-03-15T03:02:43.310Z,22.31
2023-03-15T05:16:43.279Z,22.26
2023-03-15T05:17:43.198Z,22.26
2023-03-15T05:18:43.199Z,22.27
2023-03-15T05:19:43.199Z,22.27
2023-03-15T05:20:43.189Z,22.26
2023-03-15T05:21:43.179Z,22.26
2023-03-15T05:22:43.188Z,22.26
2023-03-15T05:23:43.205Z,22.27
2023-03-15T05:24:43.187Z,22.28
2023-03-15T05:25:43.218Z,22.27
2023-03-15T05:26:43.175Z,22.26
2023-03-15T05:27:43.184Z,22.26
2023-03-15T05:28:43.187Z,22.26
2023-03-15T05:29:43.182Z,22.26
2023-03-15T05:30:43.201Z,22.26
2023-03-15T05:31:43.267Z,22.27
2023-03-15T05:32:43.215Z,22.27
2023-03-15T05:33:43.199Z,22.27
2023-03-15T05:34:43.177Z,22.27
2023-03-15T05:35:43.194Z,22.28
2023-03-15T05:36:43.196Z,22.27
2023-03-15T05:37:43.184Z,22.26
2023-03-15T05:38:45.532Z,22.27
2023-03-15T05:39:43.252Z,22.28
2023-03-15T05:40:43.254Z,22.28
2023-03-15T05:41:43.225Z,22.28
2023-03-15T05:42:43.229Z,22.27
2023-03-15T05:43:43.225Z,22.27
2023-03-15T05:44:43.237Z,22.27
2023-03-15T05:45:43.260Z,22.27
2023-03-15T05:46:43.235Z,22.27
2023-03-15T05:47:43.266Z,22.27
2023-03-15T05:48:43.257Z,22.27
2023-03-15T05:49:43.240Z,22.26
2023-03-15T05:50:43.247Z,22.26
2023-03-15T05:51:43.252Z,22.27
2023-03-15T05:52:43.246Z,22.27
2023-03-15T05:53:45.266Z,22.26
2023-03-15T05:54:43.247Z,22.26
2023-03-15T05:55:43.250Z,22.26
2023-03-15T05:56:43.253Z,22.26
2023-03-15T05:57:43.239Z,22.27
2023-03-15T05:58:43.246Z,22.27
2023-03-15T05:59:43.310Z,22.26
2023-03-15T06:00:43.244Z,22.26
2023-03-15T06:01:43.253Z,22.25
2023-03-15T06:02:43.235Z,22.25
2023-03-15T06:03:43.318Z,22.26
2023-03-15T06:04:43.239Z,22.28
2023-03-15T06:05:43.226Z,22.27
2023-03-15T06:06:43.236Z,22.27
2023-03-15T06:07:43.230Z,22.27
2023-03-15T06:08:43.225Z,22.26
2023-03-15T06:09:43.229Z,22.27
2023-03-15T06:10:43.217Z,22.29
2023-03-15T06:11:43.215Z,22.28
2023-03-15T06:12:43.212Z,22.27
2023-03-15T06:13:43.203Z,22.27
2023-03-15T06:14:43.211Z,22.26
2023-03-15T06:15:43.204Z,22.27
2023-03-15T06:16:43.249Z,22.27
2023-03-15T06:17:43.188Z,22.27
2023-03-15T06:18:43.201Z,22.27
2023-03-15T06:19:43.179Z,22.36
2023-03-15T06:20:43.177Z,22.36
2023-03-15T06:21:43.165Z,22.34
2023-03-15T06:22:43.153Z,22.33
2023-03-15T06:23:43.155Z,22.34
2023-03-15T06:24:43.139Z,22.33
2023-03-15T06:25:43.138Z,22.33
2023-03-15T06:26:43.136Z,22.33
2023-03-15T06:27:43.125Z,22.33
2023-03-15T06:28:43.146Z,22.32
2023-03-15T06:29:43.136Z,22.31
2023-03-15T06:51:42.808Z,23.73
2023-03-15T07:11:42.508Z,23.62
2023-03-15T07:12:42.510Z,23.64
2023-03-15T07:13:42.526Z,23.65
2023-03-15T07:14:42.443Z,23.66
2023-03-15T07:15:42.484Z,23.67
2023-03-15T07:16:42.418Z,23.69
2023-03-15T07:17:42.396Z,23.69
2023-03-15T07:18:42.365Z,23.71
2023-03-15T07:19:55.531Z,23.72
2023-03-15T07:20:43.347Z,23.73
2023-03-15T07:21:42.314Z,23.75
2023-03-15T07:22:42.317Z,23.78
2023-03-15T07:23:42.291Z,23.82
2023-03-15T07:24:42.290Z,23.83
2023-03-15T07:25:54.330Z,23.87
2023-03-15T07:26:43.253Z,23.88
2023-03-15T07:27:42.242Z,23.90
2023-03-15T07:28:42.228Z,23.93
2023-03-15T07:29:42.228Z,24.00
2023-03-15T07:30:42.228Z,24.06
2023-03-15T07:31:42.232Z,24.06
2023-03-15T07:32:42.230Z,23.99
2023-03-15T07:33:42.138Z,23.85
2023-03-15T07:34:42.141Z,23.71
2023-03-15T07:35:42.175Z,23.53
2023-03-15T07:36:42.141Z,23.47
2023-03-15T07:37:44.684Z,23.45
2023-03-15T07:38:43.287Z,23.45
2023-03-15T07:39:42.084Z,23.50
2023-03-15T07:40:42.134Z,23.70
2023-03-15T07:41:42.071Z,23.91
2023-03-15T07:42:42.070Z,24.13
2023-03-15T07:43:42.027Z,24.10
2023-03-15T07:44:42.006Z,24.12
2023-03-15T07:45:42.010Z,24.17
2023-03-15T07:46:42.034Z,24.21
2023-03-15T07:47:41.961Z,24.20
2023-03-15T07:48:41.928Z,24.20
2023-03-15T07:49:41.909Z,24.21
2023-03-15T07:50:41.890Z,24.26
2023-03-15T07:51:41.854Z,24.26
2023-03-15T07:52:41.811Z,24.32
2023-03-15T07:53:41.805Z,24.36
2023-03-15T07:54:41.783Z,24.42
2023-03-15T07:55:41.772Z,24.43
2023-03-15T07:56:41.736Z,24.44
2023-03-15T07:57:41.722Z,24.42
2023-03-15T11:01:37.092Z,24.68
2023-03-15T11:02:37.057Z,24.68
2023-03-15T11:03:36.998Z,24.70
2023-03-15T11:04:36.954Z,24.72
2023-03-15T11:05:36.921Z,24.74
2023-03-15T11:06:36.897Z,24.75
2023-03-15T11:07:36.872Z,24.77
2023-03-15T11:08:36.833Z,24.78
2023-03-15T11:09:36.785Z,24.79
2023-03-15T11:10:36.749Z,24.81
2023-03-15T11:11:36.730Z,24.81
2023-03-15T11:12:36.689Z,24.83
2023-03-15T11:13:36.671Z,24.85
2023-03-15T11:14:36.634Z,24.87
2023-03-15T11:15:36.604Z,24.90
2023-03-15T11:16:36.656Z,24.92
2023-03-15T11:17:36.527Z,24.94
2023-03-15T11:18:36.490Z,24.97
2023-03-15T11:19:36.571Z,24.99
2023-03-15T11:20:36.439Z,25.01
2023-03-15T11:21:36.443Z,25.03
2023-03-15T11:22:36.384Z,25.05
2023-03-15T11:23:36.351Z,25.07
2023-03-15T11:24:36.331Z,25.09
2023-03-15T11:25:36.270Z,25.11
2023-03-15T11:26:36.245Z,25.12
2023-03-15T11:27:36.210Z,25.14
2023-03-15T11:28:36.178Z,25.16
2023-03-15T11:29:36.133Z,25.18
2023-03-15T11:30:36.126Z,25.19
2023-03-15T11:31:36.088Z,25.20
2023-03-15T11:32:36.113Z,25.21
2023-03-15T11:33:35.977Z,25.22
2023-03-15T11:34:35.949Z,25.24
2023-03-15T11:35:35.949Z,25.25
2023-03-15T11:36:35.863Z,25.26
2023-03-15T11:37:35.825Z,25.27
2023-03-15T11:38:35.772Z,25.29
2023-03-15T11:39:35.745Z,25.30
2023-03-15T11:40:35.698Z,25.32
2023-03-15T11:41:35.650Z,25.33
2023-03-15T11:42:35.627Z,25.33
2023-03-15T11:43:35.580Z,25.35
2023-03-15T11:44:35.541Z,25.37
2023-03-15T11:45:35.564Z,25.39
2023-03-15T11:46:35.466Z,25.41
2023-03-15T11:47:35.423Z,25.43
2023-03-15T11:48:35.386Z,25.44
2023-03-15T11:49:35.341Z,25.45
2023-03-15T11:50:35.296Z,25.46
2023-03-15T11:51:35.279Z,25.47
2023-03-15T11:52:35.246Z,25.48
2023-03-15T11:53:35.188Z,25.49
2023-03-15T11:54:35.166Z,25.51
2023-03-15T11:55:35.145Z,25.52
2023-03-15T11:56:35.114Z,25.54
2023-03-15T11:57:35.106Z,25.55
2023-03-15T11:58:35.039Z,25.57
2023-03-15T11:59:35.118Z,25.58
2023-03-15T12:00:34.966Z,25.58
2023-03-15T12:01:34.931Z,25.61
2023-03-15T12:02:34.972Z,25.63
2023-03-15T12:03:34.891Z,25.64
2023-03-15T12:04:34.825Z,25.63
2023-03-15T12:05:34.788Z,25.66
2023-03-15T12:06:34.724Z,25.67
2023-03-15T12:07:34.783Z,25.68
2023-03-15T12:08:34.672Z,25.69
2023-03-15T12:09:34.639Z,25.70
2023-03-15T12:10:34.594Z,25.71
2023-03-15T12:11:34.554Z,25.72
2023-03-15T12:12:34.569Z,25.72
2023-03-15T12:13:34.470Z,25.74
2023-03-15T12:14:34.433Z,25.75
2023-03-15T12:15:34.398Z,25.76
2023-03-15T12:16:34.375Z,25.77
2023-03-15T12:17:36.282Z,25.79
2023-03-15T12:18:34.253Z,25.79
2023-03-15T12:19:34.227Z,25.82
2023-03-15T12:20:34.188Z,25.83
2023-03-15T12:21:34.139Z,25.83
2023-03-15T12:22:34.111Z,25.84
2023-03-15T12:23:34.051Z,25.86
2023-03-15T12:24:34.017Z,25.88
2023-03-15T12:25:37.278Z,25.88
2023-03-15T12:26:34.935Z,25.90
2023-03-15T12:27:33.897Z,25.90
2023-03-15T12:28:33.850Z,25.91
2023-03-15T12:29:33.803Z,25.93
2023-03-15T12:30:33.823Z,25.94
2023-03-15T12:31:33.750Z,25.96
2023-03-15T12:32:33.707Z,25.96
2023-03-15T12:33:33.631Z,25.98
2023-03-15T12:34:33.613Z,25.99
2023-03-15T12:35:33.571Z,25.99
2023-03-15T12:36:33.508Z,26.00
2023-03-15T12:37:33.488Z,26.01
2023-03-15T12:38:33.425Z,26.03
2023-03-15T12:39:33.392Z,26.04
2023-03-15T12:40:33.387Z,26.05
2023-03-15T12:41:33.336Z,26.06
2023-03-15T12:42:33.283Z,26.07
2023-03-15T12:43:33.247Z,26.09
2023-03-15T12:44:33.202Z,26.09
2023-03-15T12:45:33.170Z,26.03
2023-03-15T12:46:33.170Z,26.02
2023-03-15T12:47:33.099Z,26.01
2023-03-15T12:48:33.052Z,26.01
2023-03-15T12:49:33.011Z,26.01
2023-03-15T12:50:32.986Z,26.00
2023-03-15T12:51:32.958Z,26.00
2023-03-15T12:52:32.905Z,25.94
2023-03-15T12:53:32.869Z,25.92
2023-03-15T12:54:32.837Z,25.92
2023-03-15T12:55:32.817Z,25.92
2023-03-15T12:56:32.816Z,25.92
2023-03-15T12:57:32.735Z,25.91
2023-03-15T12:58:32.711Z,25.90
2023-03-15T12:59:32.670Z,25.90
2023-03-15T13:00:32.642Z,25.89
2023-03-15T13:01:32.659Z,25.89
2023-03-15T13:02:42.650Z,25.88
2023-03-15T13:03:33.581Z,25.87
2023-03-15T13:04:32.491Z,25.87
2023-03-15T13:05:32.452Z,25.89
2023-03-15T13:06:32.411Z,25.88
2023-03-15T13:07:36.878Z,25.86
2023-03-15T13:08:33.336Z,25.86
2023-03-15T13:09:32.310Z,25.88
2023-03-15T13:10:32.283Z,25.89
2023-03-15T13:11:32.295Z,25.89
2023-03-15T13:12:32.181Z,25.90
2023-03-15T13:13:32.116Z,25.91
2023-03-15T13:14:32.102Z,25.91
2023-03-15T13:15:32.073Z,25.92
2023-03-15T13:16:32.019Z,25.92
2023-03-15T13:17:31.975Z,25.93
2023-03-15T13:18:31.909Z,25.93
2023-03-15T13:19:31.892Z,25.93
2023-03-15T13:20:31.822Z,25.93
2023-03-15T13:21:31.767Z,25.93
2023-03-15T13:22:31.732Z,25.90
2023-03-15T13:23:31.704Z,25.85
2023-03-15T13:54:30.716Z,25.82
2023-03-15T13:57:30.588Z,25.78
2023-03-15T13:59:30.504Z,25.76
2023-03-15T14:00:30.470Z,25.73
2023-03-15T14:01:30.483Z,25.73
2023-03-15T14:02:30.439Z,25.72
2023-03-15T14:03:30.384Z,25.71
2023-03-15T14:04:30.360Z,25.65
2023-03-15T14:05:30.310Z,25.66
2023-03-15T14:06:30.305Z,25.65
2023-03-15T14:07:30.253Z,25.64
2023-03-15T14:08:30.244Z,25.65
2023-03-15T14:09:30.194Z,25.66
2023-03-15T14:10:30.158Z,25.67
2023-03-15T14:11:30.178Z,25.67
2023-03-15T14:12:30.074Z,25.63
2023-03-15T14:13:30.065Z,25.63
2023-03-15T14:14:30.016Z,25.57
2023-03-15T14:15:29.970Z,25.52
2023-03-15T14:16:30.003Z,25.48
2023-03-15T14:17:29.913Z,25.42
2023-03-15T14:18:29.879Z,25.38
2023-03-15T14:19:29.842Z,25.39
2023-03-15T14:20:29.832Z,25.39
2023-03-15T14:21:29.766Z,25.39
2023-03-15T14:22:29.735Z,25.36
2023-03-15T14:23:29.755Z,25.35
2023-03-15T14:24:29.675Z,25.36
2023-03-15T14:25:29.635Z,25.36
2023-03-15T14:26:29.671Z,25.36
2023-03-15T14:27:29.584Z,25.38
2023-03-15T14:28:29.532Z,25.35
2023-03-15T14:29:29.518Z,25.33
2023-03-15T14:30:29.506Z,25.36
2023-03-15T14:31:29.509Z,25.39
2023-03-15T14:32:29.520Z,25.42
2023-03-15T14:33:29.426Z,25.41
2023-03-15T14:34:29.373Z,25.40
2023-03-15T14:35:29.332Z,25.40
2023-03-15T14:36:29.341Z,25.41
2023-03-15T14:37:29.284Z,25.40
2023-03-15T14:38:29.237Z,25.37
2023-03-15T14:39:29.193Z,25.35
2023-03-15T14:40:29.163Z,25.35
2023-03-15T14:41:29.119Z,25.34
2023-03-15T14:42:29.115Z,25.34
2023-03-15T14:43:29.079Z,25.31
2023-03-15T14:44:29.035Z,25.31
2023-03-15T14:45:29.025Z,25.28
2023-03-15T14:46:28.961Z,25.28
2023-03-15T14:47:28.916Z,25.28
2023-03-15T14:48:28.891Z,25.28
2023-03-15T14:49:28.840Z,25.28
2023-03-15T14:50:28.885Z,25.29
2023-03-15T14:51:28.797Z,25.29
2023-03-15T14:52:28.756Z,25.24
2023-03-15T14:53:28.704Z,25.22
2023-03-15T14:54:28.671Z,25.22
2023-03-15T14:55:28.660Z,25.20
2023-03-15T14:56:28.597Z,25.21
2023-03-15T14:57:28.557Z,25.20
2023-03-15T14:58:28.524Z,25.18
2023-03-15T14:59:28.497Z,25.15
2023-03-15T15:00:28.470Z,25.15
2023-03-15T15:01:28.505Z,25.14
2023-03-15T15:02:28.476Z,25.11
2023-03-15T15:03:28.356Z,25.10
2023-03-15T15:04:28.333Z,25.10
2023-03-15T15:05:28.295Z,25.12
2023-03-15T15:06:28.352Z,25.15
2023-03-15T15:07:28.216Z,25.15
2023-03-15T15:08:28.247Z,25.04
2023-03-15T15:09:28.159Z,24.91
2023-03-15T15:10:28.129Z,24.80
2023-03-15T15:11:28.098Z,24.71
2023-03-15T15:12:28.237Z,24.63
2023-03-15T15:13:28.046Z,24.55
2023-03-15T15:14:28.025Z,24.41
2023-03-15T15:15:27.985Z,24.36
2023-03-15T15:16:28.044Z,24.29
2023-03-15T15:17:27.964Z,24.19
2023-03-15T15:18:27.975Z,24.07
2023-03-15T15:19:27.926Z,24.08
2023-03-15T15:20:27.890Z,24.16
2023-03-15T15:21:27.887Z,24.24
2023-03-15T15:22:27.857Z,24.29
2023-03-15T15:23:27.869Z,24.35
2023-03-15T15:24:27.796Z,24.40
2023-03-15T15:25:27.779Z,24.45
2023-03-15T15:26:27.798Z,24.49
2023-03-15T15:27:27.713Z,24.49
2023-03-15T15:28:35.386Z,24.51
2023-03-15T15:29:28.653Z,24.52
2023-03-15T15:30:27.611Z,24.53
2023-03-15T15:31:27.673Z,24.54
2023-03-15T15:32:27.576Z,24.56
2023-03-15T15:33:27.524Z,24.57
2023-03-15T15:34:27.491Z,24.58
2023-03-15T15:35:27.474Z,24.57
2023-03-15T15:36:27.443Z,24.58
2023-03-15T15:37:27.404Z,24.58
2023-03-15T15:38:27.388Z,24.58
2023-03-15T15:39:27.356Z,24.57
2023-03-15T15:40:27.306Z,24.57
2023-03-15T15:41:27.279Z,24.56
2023-03-15T15:42:27.267Z,24.54
2023-03-15T15:43:27.253Z,24.54
2023-03-15T15:44:27.227Z,24.54
2023-03-15T15:45:27.198Z,24.50
2023-03-15T15:46:27.293Z,24.50
2023-03-15T15:47:27.139Z,24.50
2023-03-15T15:48:27.114Z,24.50
2023-03-15T15:49:27.083Z,24.49
2023-03-15T15:50:27.085Z,24.49
2023-03-15T15:51:27.031Z,24.47
2023-03-15T15:52:27.031Z,24.48
2023-03-15T15:53:26.982Z,24.48
2023-03-15T15:54:26.950Z,24.48
2023-03-15T15:55:26.922Z,24.46
2023-03-15T15:56:26.928Z,24.46
2023-03-15T15:57:26.884Z,24.46
2023-03-15T15:58:26.868Z,24.45
2023-03-15T15:59:26.809Z,24.44
2023-03-15T16:00:26.810Z,24.45
2023-03-15T16:01:26.824Z,24.45
2023-03-15T16:02:26.799Z,24.44
2023-03-15T16:03:26.707Z,24.43
2023-03-15T16:04:26.675Z,24.43
2023-03-15T16:05:26.662Z,24.44
2023-03-15T16:06:26.630Z,24.43
2023-03-15T16:07:26.580Z,24.42
2023-03-15T16:08:26.582Z,24.43
2023-03-15T16:09:26.530Z,24.43
2023-03-15T16:10:26.509Z,24.43
2023-03-15T16:11:26.478Z,24.41
2023-03-15T16:12:26.480Z,24.40
2023-03-15T16:13:26.431Z,24.39
2023-03-15T16:14:26.408Z,24.38
2023-03-15T16:15:26.385Z,24.38
2023-03-15T16:16:26.342Z,24.38
2023-03-15T16:17:26.322Z,24.38
2023-03-15T16:18:26.301Z,24.39
2023-03-15T16:19:26.249Z,24.38
2023-03-15T16:20:26.213Z,24.37
2023-03-15T16:21:26.172Z,24.38
2023-03-15T16:22:26.142Z,24.36
2023-03-15T16:23:26.129Z,24.35
2023-03-15T16:24:26.081Z,24.35
2023-03-15T16:25:26.039Z,24.34
2023-03-15T16:26:26.019Z,24.34
2023-03-15T16:27:26.013Z,24.33
2023-03-15T16:28:25.968Z,24.34
2023-03-15T16:29:25.932Z,24.32
2023-03-15T16:30:25.918Z,24.32
2023-03-15T16:31:25.906Z,24.31
2023-03-15T16:32:41.045Z,24.31
2023-03-15T16:33:26.937Z,24.29
2023-03-15T16:34:25.806Z,24.30
2023-03-15T16:35:25.778Z,24.28
2023-03-15T16:36:25.770Z,24.27
2023-03-15T16:37:25.745Z,24.28
2023-03-15T16:38:25.713Z,24.28
2023-03-15T16:39:25.687Z,24.26
2023-03-15T16:40:25.707Z,24.26
2023-03-15T16:41:25.636Z,24.25
2023-03-15T16:42:25.653Z,24.25
2023-03-15T16:43:25.612Z,24.24
2023-03-15T16:44:25.593Z,24.24
2023-03-15T16:45:25.569Z,24.23
2023-03-15T16:46:25.628Z,24.22
2023-03-15T16:47:25.590Z,24.22
2023-03-15T16:48:25.483Z,24.21
2023-03-15T16:49:25.459Z,24.20
2023-03-15T16:50:25.440Z,24.20
2023-03-15T16:51:25.420Z,24.19
2023-03-15T16:52:25.397Z,24.19
2023-03-15T16:53:25.384Z,24.19
2023-03-15T16:54:40.300Z,24.19
2023-03-15T16:55:26.359Z,24.18
2023-03-15T16:56:25.316Z,24.18
2023-03-15T16:57:25.294Z,24.17
2023-03-15T16:58:25.267Z,24.17
2023-03-15T16:59:25.252Z,24.17
2023-03-15T17:00:25.214Z,24.15
2023-03-15T17:01:25.258Z,24.15
2023-03-15T17:02:25.188Z,24.13
2023-03-15T17:03:25.166Z,24.14
2023-03-15T17:04:25.128Z,24.13
2023-03-15T17:05:25.113Z,24.11
2023-03-15T17:06:25.075Z,24.12
2023-03-15T17:07:25.083Z,24.11
2023-03-15T17:08:25.032Z,24.10
2023-03-15T17:09:25.021Z,24.10
2023-03-15T17:10:24.981Z,24.10
2023-03-15T17:11:24.968Z,24.09
2023-03-15T17:12:24.993Z,24.08
2023-03-15T17:13:24.916Z,24.08
2023-03-15T17:14:24.892Z,24.08
2023-03-15T17:15:24.890Z,24.07
2023-03-15T17:16:24.889Z,24.06
2023-03-15T17:17:24.890Z,24.05
2023-03-15T17:18:24.807Z,24.04
2023-03-15T17:19:24.781Z,24.04
2023-03-15T17:20:24.758Z,24.03
2023-03-15T17:21:24.731Z,24.02
2023-03-15T17:22:24.719Z,24.02
2023-03-15T17:23:24.690Z,24.01
2023-03-15T17:24:24.693Z,24.01
2023-03-15T17:25:24.695Z,24.01
2023-03-15T17:26:24.634Z,24.00
2023-03-15T17:27:24.614Z,23.98
2023-03-15T17:28:24.588Z,23.98
2023-03-15T17:29:24.577Z,23.98
2023-03-15T17:30:24.550Z,23.97
2023-03-15T17:31:25.778Z,23.97
2023-03-15T17:32:24.659Z,23.96
2023-03-15T17:33:24.482Z,23.96
2023-03-15T17:34:24.481Z,23.95
2023-03-15T17:35:24.448Z,23.95
2023-03-15T17:36:24.441Z,23.94
2023-03-15T17:37:24.409Z,23.94
2023-03-15T17:38:24.397Z,23.94
2023-03-15T17:39:24.376Z,23.93
2023-03-15T17:40:24.405Z,23.93
2023-03-15T17:41:24.329Z,23.92
2023-03-15T17:42:24.343Z,23.92
2023-03-15T17:43:24.295Z,23.91
2023-03-15T17:44:24.296Z,23.91
2023-03-15T17:45:24.255Z,23.90
2023-03-15T17:46:24.283Z,23.90
2023-03-15T17:47:24.215Z,23.89
2023-03-15T17:48:24.194Z,23.88
2023-03-15T17:49:24.189Z,23.87
2023-03-15T17:50:24.181Z,23.86
2023-03-15T17:51:24.135Z,23.85
2023-03-15T17:52:24.106Z,23.85
2023-03-15T17:53:24.102Z,23.84
2023-03-15T17:54:24.093Z,23.85
2023-03-15T17:55:24.073Z,23.83
2023-03-15T17:56:24.041Z,23.83
2023-03-15T17:57:24.031Z,23.82
2023-03-15T17:58:24.026Z,23.81
2023-03-15T17:59:24.015Z,23.82
2023-03-15T18:00:24.011Z,23.80
2023-03-15T18:01:24.020Z,23.81
2023-03-15T18:02:23.951Z,23.81
2023-03-15T18:03:23.954Z,23.80
2023-03-15T18:04:24.011Z,23.80
2023-03-15T18:05:23.907Z,23.80
2023-03-15T18:06:23.896Z,23.79
2023-03-15T18:07:23.892Z,23.78
2023-03-15T18:08:23.878Z,23.77
2023-03-15T18:09:23.896Z,23.77
2023-03-15T18:10:23.842Z,23.77
2023-03-15T18:11:23.845Z,23.75
2023-03-15T18:12:23.835Z,23.75
2023-03-15T18:13:23.825Z,23.74
2023-03-15T18:14:23.809Z,23.73
2023-03-15T18:15:23.799Z,23.74
2023-03-15T18:16:23.800Z,23.72
2023-03-15T18:17:23.761Z,23.72
2023-03-15T18:18:23.737Z,23.72
2023-03-15T18:19:23.731Z,23.73
2023-03-15T18:20:23.771Z,23.73
2023-03-15T18:21:23.727Z,23.72
2023-03-15T18:22:23.692Z,23.71
2023-03-15T18:23:23.700Z,23.71
2023-03-15T18:24:23.642Z,23.70
2023-03-15T18:25:23.630Z,23.70
2023-03-15T18:26:23.613Z,23.69
2023-03-15T18:27:23.601Z,23.69
2023-03-15T18:28:23.568Z,23.69
2023-03-15T18:29:23.557Z,23.69
2023-03-15T18:30:23.558Z,23.68
2023-03-15T18:31:23.558Z,23.69
2023-03-15T18:32:23.552Z,23.68
2023-03-15T18:33:23.488Z,23.67
2023-03-15T18:34:23.485Z,23.66
2023-03-15T18:35:23.487Z,23.65
2023-03-15T18:36:23.444Z,23.65
2023-03-15T18:37:23.433Z,23.66
2023-03-15T18:38:23.442Z,23.65
2023-03-15T18:39:23.421Z,23.64
2023-03-15T18:40:23.383Z,23.64
2023-03-15T18:41:23.370Z,23.64
2023-03-15T18:42:23.356Z,23.65
2023-03-15T18:43:23.338Z,23.64
2023-03-15T18:44:23.350Z,23.63
2023-03-15T18:45:23.333Z,23.64
2023-03-15T18:46:23.356Z,23.64
2023-03-15T18:47:23.291Z,23.63
2023-03-15T18:48:34.166Z,23.63
2023-03-15T18:49:23.256Z,23.61
2023-03-15T18:50:23.261Z,23.62
2023-03-15T18:51:23.241Z,23.62
2023-03-15T18:52:23.251Z,23.61
2023-03-15T18:53:23.219Z,23.61
2023-03-15T18:54:23.198Z,23.61
2023-03-15T18:55:23.203Z,23.61
2023-03-15T18:56:23.188Z,23.61
2023-03-15T18:57:23.176Z,23.60
2023-03-15T18:58:23.169Z,23.60
2023-03-15T18:59:25.740Z,23.61
2023-03-15T19:00:23.375Z,23.61
2023-03-15T19:01:23.408Z,23.60
2023-03-15T19:02:23.367Z,23.60
2023-03-15T19:03:23.333Z,23.60
2023-03-15T19:04:23.330Z,23.59
2023-03-15T19:05:23.320Z,23.57
2023-03-15T19:06:23.316Z,23.57
2023-03-15T19:07:23.282Z,23.56
2023-03-15T19:08:23.269Z,23.56
2023-03-15T19:09:23.322Z,23.56
2023-03-15T19:10:23.259Z,23.56
2023-03-15T19:11:23.229Z,23.55
2023-03-15T19:12:23.210Z,23.55
2023-03-15T19:13:23.206Z,23.55
2023-03-15T19:14:23.186Z,23.54
2023-03-15T19:15:23.194Z,23.54
2023-03-15T19:16:23.170Z,23.54
2023-03-15T19:17:23.143Z,23.54
2023-03-15T19:18:23.135Z,23.54
2023-03-15T19:19:23.120Z,23.54
2023-03-15T19:20:23.128Z,23.54
2023-03-15T19:21:23.118Z,23.54
2023-03-15T19:22:23.093Z,23.53
2023-03-15T19:23:23.092Z,23.53
2023-03-15T19:24:23.086Z,23.53
2023-03-15T19:25:23.075Z,23.52
2023-03-15T19:26:23.063Z,23.52
2023-03-15T19:27:23.074Z,23.52
2023-03-15T19:28:23.039Z,23.51
2023-03-15T19:29:23.041Z,23.52
2023-03-15T19:30:23.009Z,23.51
2023-03-15T19:31:23.061Z,23.51
2023-03-15T19:32:23.023Z,23.50
2023-03-15T19:33:22.995Z,23.51
2023-03-15T19:34:22.982Z,23.50
2023-03-15T19:35:22.981Z,23.50
2023-03-15T19:36:22.971Z,23.50
2023-03-15T19:37:22.951Z,23.50
2023-03-15T19:38:22.935Z,23.49
2023-03-15T19:39:22.934Z,23.50
2023-03-15T19:40:22.930Z,23.49
2023-03-15T19:41:22.926Z,23.49
2023-03-15T19:42:22.911Z,23.48
2023-03-15T19:43:22.910Z,23.49
2023-03-15T19:44:22.889Z,23.48
2023-03-15T19:45:22.903Z,23.48
2023-03-15T19:46:22.945Z,23.48
2023-03-15T19:47:22.868Z,23.47
2023-03-15T19:48:22.870Z,23.46
2023-03-15T19:49:22.883Z,23.47
2023-03-15T19:50:22.870Z,23.47
2023-03-15T19:51:22.851Z,23.46
2023-03-15T19:52:22.840Z,23.45
2023-03-15T19:53:22.813Z,23.45
2023-03-15T19:54:22.825Z,23.43
2023-03-15T19:55:22.813Z,23.43
2023-03-15T19:56:22.812Z,23.42
2023-03-15T19:57:22.784Z,23.43
2023-03-15T19:58:22.770Z,23.44
2023-03-15T19:59:22.764Z,23.43
2023-03-15T20:00:23.043Z,23.43
2023-03-15T20:01:22.796Z,23.42
2023-03-15T20:02:22.755Z,23.41
2023-03-15T20:03:22.758Z,23.41
2023-03-15T20:04:22.831Z,23.40
2023-03-15T20:05:22.744Z,23.40
2023-03-15T20:06:22.731Z,23.40
2023-03-15T20:07:22.694Z,23.39
2023-03-15T20:08:24.766Z,23.39
2023-03-15T20:09:22.846Z,23.38